Time;durP1;ratioP1;P1;durP2;ratioP2;P2;SDS_P1;SDS_P2;PMS_P1;PMS_P2;Temp;Humidity;BMP_temperature;BMP_pressure;BME280_temperature;BME280_humidity;BME280_pressure;Samples;Min_cycle;Max_cycle;Signal;HPM_P1;HPM_P2
2021/01/26 00:01:15;;;;;;;42.95;23.45;;;1.40;94.60;;;;;;4992361;28;20210;-76
2021/01/26 00:03:43;;;;;;;35.58;21.90;;;1.50;94.50;;;;;;4995134;28;20277;-75
2021/01/26 00:06:10;;;;;;;35.08;21.08;;;1.50;94.30;;;;;;4995940;28;20396;-75
2021/01/26 00:08:36;;;;;;;40.67;23.63;;;1.50;94.40;;;;;;4991631;28;20276;-76
2021/01/26 00:11:04;;;;;;;47.60;24.83;;;1.50;94.50;;;;;;4995296;28;20214;-76
2021/01/26 00:13:32;;;;;;;41.67;24.27;;;1.40;94.60;;;;;;4996145;28;20208;-76
2021/01/26 00:15:59;;;;;;;36.92;22.45;;;1.40;94.60;;;;;;4994046;28;20240;-75
2021/01/26 00:18:26;;;;;;;44.55;24.58;;;1.40;94.60;;;;;;5024878;28;20221;-75
2021/01/26 00:20:53;;;;;;;40.75;23.75;;;1.40;94.70;;;;;;4992518;28;20486;-75
2021/01/26 00:23:20;;;;;;;40.67;22.23;;;1.80;94.70;;;;;;4994942;28;20216;-77
2021/01/26 00:25:48;;;;;;;36.88;20.33;;;1.50;94.40;;;;;;4996977;28;20217;-77
2021/01/26 00:28:16;;;;;;;36.97;22.17;;;1.50;94.40;;;;;;4990864;28;20221;-77
2021/01/26 00:30:44;;;;;;;38.80;22.67;;;1.40;94.50;;;;;;4987727;28;20218;-76
2021/01/26 00:33:16;;;;;;;31.40;19.65;;;1.50;94.40;;;;;;4996721;28;20206;-75
2021/01/26 00:35:44;;;;;;;34.13;21.00;;;1.50;94.30;;;;;;4996623;28;20319;-77
2021/01/26 00:38:11;;;;;;;37.72;20.73;;;1.60;94.10;;;;;;4996855;28;20205;-77
2021/01/26 00:40:38;;;;;;;29.75;20.77;;;1.70;94.10;;;;;;4997926;28;20197;-76
2021/01/26 00:43:07;;;;;;;39.20;18.60;;;1.70;93.90;;;;;;4997793;28;20221;-77
2021/01/26 00:45:34;;;;;;;28.60;19.77;;;1.70;94.00;;;;;;4998256;28;20213;-76
2021/01/26 00:48:00;;;;;;;28.25;19.08;;;2.10;94.10;;;;;;4996986;28;20629;-75
2021/01/26 00:50:27;;;;;;;35.13;21.73;;;1.80;93.90;;;;;;4997400;28;20231;-75
2021/01/26 00:52:54;;;;;;;30.15;19.58;;;1.80;93.80;;;;;;4994647;28;20208;-75
2021/01/26 00:55:23;;;;;;;31.90;18.23;;;1.60;93.80;;;;;;4993697;28;20266;-76
2021/01/26 00:57:50;;;;;;;36.22;18.83;;;1.60;93.80;;;;;;4986607;28;20206;-75
2021/01/26 01:00:36;;;;;;;27.33;18.20;;;1.70;93.80;;;;;;5011574;28;20210;-76
2021/01/26 01:03:07;;;;;;;30.20;18.48;;;1.60;94.00;;;;;;4991186;28;20391;-75
2021/01/26 01:05:34;;;;;;;30.35;19.42;;;1.60;94.00;;;;;;4991492;28;20567;-76
2021/01/26 01:08:01;;;;;;;30.45;18.02;;;1.60;94.00;;;;;;4997882;28;20227;-76
2021/01/26 01:10:30;;;;;;;33.97;19.95;;;1.80;94.10;;;;;;4996502;28;20210;-74
2021/01/26 01:12:57;;;;;;;30.02;17.17;;;1.50;94.10;;;;;;4991165;28;20396;-75
2021/01/26 01:15:24;;;;;;;31.77;20.55;;;2.20;94.20;;;;;;4997440;28;20245;-76
2021/01/26 01:17:51;;;;;;;31.40;19.80;;;1.60;94.20;;;;;;4985355;28;20225;-76
2021/01/26 01:20:22;;;;;;;31.08;19.75;;;1.60;94.20;;;;;;4994205;28;20218;-77
2021/01/26 01:22:49;;;;;;;31.55;20.00;;;1.60;94.10;;;;;;4989703;28;20233;-75
2021/01/26 01:25:16;;;;;;;32.13;19.00;;;1.60;94.00;;;;;;4989860;28;20225;-75
2021/01/26 01:27:43;;;;;;;34.40;19.40;;;1.50;94.00;;;;;;4997618;28;20209;-76
2021/01/26 01:30:12;;;;;;;30.40;17.98;;;1.50;94.00;;;;;;4997786;28;20213;-75
2021/01/26 01:32:39;;;;;;;29.00;17.17;;;1.50;94.20;;;;;;4997138;28;20216;-75
2021/01/26 01:35:08;;;;;;;37.78;20.70;;;1.80;94.30;;;;;;4990276;28;20606;-76
2021/01/26 01:37:36;;;;;;;39.35;21.08;;;1.50;94.30;;;;;;4998154;28;20201;-76
2021/01/26 01:40:04;;;;;;;30.40;18.65;;;1.50;94.40;;;;;;4997562;28;20371;-76
2021/01/26 01:42:31;;;;;;;31.88;20.17;;;1.50;94.50;;;;;;4994291;28;20285;-77
2021/01/26 01:44:58;;;;;;;40.00;22.75;;;1.90;94.40;;;;;;4990593;28;20205;-75
2021/01/26 01:47:30;;;;;;;30.92;17.23;;;1.60;94.50;;;;;;4990203;28;20383;-75
2021/01/26 01:50:01;;;;;;;39.47;21.85;;;1.60;94.50;;;;;;4997564;28;20212;-75
2021/01/26 01:52:34;;;;;;;36.55;21.33;;;1.60;94.00;;;;;;4988882;28;20277;-75
2021/01/26 01:55:17;;;;;;;31.60;19.23;;;1.70;94.10;;;;;;4997634;28;20229;-75
2021/01/26 01:57:58;;;;;;;33.72;19.45;;;1.60;94.00;;;;;;4993238;28;20270;-76
2021/01/26 02:00:25;;;;;;;32.95;20.48;;;1.60;94.00;;;;;;4994047;28;20220;-76
2021/01/26 02:03:01;;;;;;;31.42;19.60;;;1.70;93.90;;;;;;5000739;28;20218;-76
2021/01/26 02:05:27;;;;;;;29.55;18.33;;;1.50;94.30;;;;;;5001182;28;20220;-77
2021/01/26 02:07:57;;;;;;;29.52;16.98;;;1.40;94.60;;;;;;5000294;28;20232;-74
2021/01/26 02:10:24;;;;;;;36.28;21.15;;;1.40;94.50;;;;;;5000517;28;20216;-75
2021/01/26 02:12:51;;;;;;;38.70;21.88;;;1.50;94.40;;;;;;4994418;28;20217;-75
2021/01/26 02:15:19;;;;;;;32.05;19.98;;;1.90;94.60;;;;;;5000857;28;20246;-76
2021/01/26 02:18:04;;;;;;;34.22;21.75;;;1.40;94.50;;;;;;5000041;28;20276;-76
2021/01/26 02:21:09;;;;;;;34.35;20.55;;;1.50;94.50;;;;;;4999387;28;20205;-75
2021/01/26 02:24:02;;;;;;;29.38;17.33;;;1.50;94.30;;;;;;4993783;28;20217;-75
2021/01/26 02:26:59;;;;;;;30.50;18.45;;;1.50;94.30;;;;;;4994692;28;20411;-76
2021/01/26 02:29:58;;;;;;;32.85;20.80;;;1.50;94.20;;;;;;4996925;28;20216;-76
2021/01/26 02:32:30;;;;;;;33.22;17.60;;;1.50;94.40;;;;;;5000513;28;20217;-76
2021/01/26 02:35:33;;;;;;;38.67;20.80;;;1.40;94.40;;;;;;4998627;28;20547;-76
2021/01/26 02:38:35;;;;;;;32.08;17.80;;;1.30;94.50;;;;;;4997535;28;20209;-75
2021/01/26 02:41:29;;;;;;;28.98;17.25;;;1.20;94.50;;;;;;4990069;28;20209;-76
2021/01/26 02:44:09;;;;;;;30.17;17.17;;;1.10;94.70;;;;;;4995158;28;20232;-77
2021/01/26 02:46:41;;;;;;;34.22;17.83;;;1.10;94.80;;;;;;4986450;28;20224;-76
2021/01/26 02:49:42;;;;;;;38.65;20.08;;;2.30;95.20;;;;;;4995410;28;20211;-75
2021/01/26 02:52:21;;;;;;;33.67;19.10;;;1.20;94.80;;;;;;4988316;28;20207;-76
2021/01/26 02:55:03;;;;;;;39.58;20.52;;;1.20;94.60;;;;;;5000131;28;20206;-77
2021/01/26 02:57:41;;;;;;;34.15;19.23;;;1.30;94.50;;;;;;4985356;28;20501;-77
2021/01/26 03:00:21;;;;;;;36.08;19.33;;;1.30;94.50;;;;;;4996737;28;20203;-76
2021/01/26 03:03:01;;;;;;;38.75;22.20;;;1.30;94.50;;;;;;5000023;28;20228;-76
2021/01/26 03:05:34;;;;;;;36.08;21.55;;;1.40;94.40;;;;;;4995691;28;20493;-77
2021/01/26 03:08:06;;;;;;;30.67;19.92;;;1.30;94.30;;;;;;5023167;28;20229;-76
2021/01/26 03:10:40;;;;;;;36.63;23.45;;;1.20;94.70;;;;;;4998981;28;20650;-76
2021/01/26 03:13:13;;;;;;;43.55;24.67;;;1.30;94.60;;;;;;4998105;28;20206;-76
2021/01/26 03:15:46;;;;;;;46.40;26.42;;;1.40;94.50;;;;;;4992958;28;20239;-76
2021/01/26 03:18:19;;;;;;;41.30;23.05;;;1.30;94.40;;;;;;4992281;28;20216;-77
2021/01/26 03:20:55;;;;;;;34.53;21.40;;;1.50;94.40;;;;;;4999511;28;20244;-75
2021/01/26 03:23:45;;;;;;;40.53;23.20;;;1.30;94.40;;;;;;4987761;28;20221;-77
2021/01/26 03:26:19;;;;;;;38.15;23.95;;;1.20;94.70;;;;;;4986282;28;20211;-75
2021/01/26 03:28:50;;;;;;;38.22;22.88;;;1.20;94.70;;;;;;4994793;28;20271;-75
2021/01/26 03:31:20;;;;;;;31.65;19.40;;;1.30;94.50;;;;;;4982004;28;20221;-76
2021/01/26 03:33:49;;;;;;;37.22;22.23;;;1.30;94.40;;;;;;4994305;28;20204;-75
2021/01/26 03:36:16;;;;;;;38.20;21.98;;;1.30;94.60;;;;;;4996275;28;20244;-75
2021/01/26 03:38:46;;;;;;;37.13;21.55;;;1.30;94.60;;;;;;4988289;28;20750;-76
2021/01/26 03:41:13;;;;;;;33.30;20.90;;;1.20;94.50;;;;;;4997576;28;20209;-75
2021/01/26 03:43:40;;;;;;;37.38;22.65;;;1.20;94.40;;;;;;4988197;28;20217;-76
2021/01/26 03:46:23;;;;;;;31.83;21.63;;;1.30;94.30;;;;;;4999178;28;20377;-76
2021/01/26 03:49:15;;;;;;;36.35;21.90;;;1.20;94.30;;;;;;4992970;28;20404;-75
2021/01/26 03:52:09;;;;;;;38.65;22.40;;;1.20;94.10;;;;;;4983192;28;20212;-76
2021/01/26 03:54:37;;;;;;;31.80;20.27;;;1.20;94.10;;;;;;5021450;28;20210;-76
2021/01/26 03:57:14;;;;;;;27.55;18.15;;;1.40;94.00;;;;;;4992878;28;20233;-75
2021/01/26 04:00:04;;;;;;;42.88;21.70;;;1.10;93.90;;;;;;4998392;28;20420;-75
2021/01/26 04:02:55;;;;;;;34.35;20.65;;;1.10;93.80;;;;;;4987814;28;20213;-76
2021/01/26 04:05:31;;;;;;;38.92;19.88;;;1.10;94.00;;;;;;4997079;28;20210;-76
2021/01/26 04:08:16;;;;;;;28.35;16.90;;;1.00;94.00;;;;;;4980579;28;20236;-76
2021/01/26 04:10:51;;;;;;;34.85;21.55;;;1.10;94.10;;;;;;4991952;28;20220;-75
2021/01/26 04:13:24;;;;;;;28.73;18.15;;;1.30;93.90;;;;;;4983805;28;20310;-75
2021/01/26 04:15:58;;;;;;;39.67;21.55;;;1.10;93.90;;;;;;4986277;28;20233;-75
2021/01/26 04:18:29;;;;;;;32.17;19.98;;;1.10;93.90;;;;;;4984810;28;20210;-75
2021/01/26 04:20:56;;;;;;;31.77;19.63;;;1.60;94.00;;;;;;4998261;28;20216;-74
2021/01/26 04:23:26;;;;;;;36.08;20.35;;;1.10;93.80;;;;;;4984559;28;20443;-75
2021/01/26 04:25:54;;;;;;;31.50;19.85;;;1.20;93.90;;;;;;4988061;28;20221;-75
2021/01/26 04:28:36;;;;;;;30.50;19.60;;;1.10;93.90;;;;;;4992594;28;20206;-74
2021/01/26 04:31:04;;;;;;;39.40;20.23;;;1.10;94.00;;;;;;4991136;28;20571;-75
2021/01/26 04:33:31;;;;;;;32.67;21.30;;;1.10;94.00;;;;;;4996904;28;20206;-75
2021/01/26 04:35:57;;;;;;;30.08;19.35;;;1.10;93.80;;;;;;4985946;28;20575;-74
2021/01/26 04:38:24;;;;;;;37.20;21.95;;;1.10;94.30;;;;;;4992040;28;20216;-74
2021/01/26 04:41:01;;;;;;;32.10;20.23;;;1.10;94.00;;;;;;4987090;28;20209;-74
2021/01/26 04:43:54;;;;;;;36.53;21.25;;;1.10;94.20;;;;;;5000094;28;20209;-74
2021/01/26 04:46:48;;;;;;;42.42;22.77;;;1.10;94.20;;;;;;4998481;28;20213;-75
2021/01/26 04:49:26;;;;;;;37.38;21.17;;;1.10;94.10;;;;;;4993321;28;20286;-75
2021/01/26 04:52:11;;;;;;;36.10;22.13;;;1.00;94.10;;;;;;4993788;28;20213;-75
2021/01/26 04:55:26;;;;;;;29.45;18.92;;;1.10;94.50;;;;;;4998058;28;20276;-74
2021/01/26 04:58:20;;;;;;;44.80;25.02;;;1.00;94.30;;;;;;4993874;28;20216;-75
2021/01/26 05:01:07;;;;;;;43.03;24.65;;;1.20;94.20;;;;;;4993722;28;20214;-75
2021/01/26 05:03:54;;;;;;;33.80;21.92;;;1.10;94.30;;;;;;4977737;28;20206;-75
2021/01/26 05:06:23;;;;;;;42.55;23.48;;;1.20;94.10;;;;;;4985104;28;20205;-75
2021/01/26 05:08:52;;;;;;;34.83;22.83;;;1.20;94.20;;;;;;4997776;28;20448;-75
2021/01/26 05:11:26;;;;;;;45.85;25.10;;;1.20;94.00;;;;;;4984544;28;20209;-75
2021/01/26 05:14:00;;;;;;;36.13;22.02;;;1.20;94.20;;;;;;4998142;28;20229;-75
2021/01/26 05:16:35;;;;;;;43.38;24.50;;;1.30;94.10;;;;;;4983444;28;20562;-75
2021/01/26 05:19:09;;;;;;;39.65;23.65;;;2.60;94.50;;;;;;4997973;28;20566;-75
2021/01/26 05:21:56;;;;;;;33.10;22.80;;;1.30;94.10;;;;;;4991454;28;20221;-74
2021/01/26 05:24:33;;;;;;;34.20;24.90;;;1.30;94.10;;;;;;4992679;28;20408;-75
2021/01/26 05:27:02;;;;;;;36.22;20.80;;;1.20;94.30;;;;;;4987333;28;20622;-75
2021/01/26 05:29:31;;;;;;;36.38;23.17;;;1.30;94.10;;;;;;4997489;28;20213;-76
2021/01/26 05:32:01;;;;;;;34.30;23.35;;;1.40;93.90;;;;;;4987558;28;20468;-74
2021/01/26 05:34:30;;;;;;;39.92;23.83;;;1.30;94.10;;;;;;4989112;28;20217;-74
2021/01/26 05:36:58;;;;;;;39.30;23.00;;;1.30;94.30;;;;;;4997381;28;20228;-75
2021/01/26 05:39:43;;;;;;;43.03;26.42;;;1.30;94.30;;;;;;4985538;28;20210;-75
2021/01/26 05:42:12;;;;;;;37.03;24.58;;;1.30;94.20;;;;;;4995878;28;20672;-75
2021/01/26 05:44:41;;;;;;;35.95;20.85;;;1.30;94.30;;;;;;4986316;28;20424;-76
2021/01/26 05:47:38;;;;;;;38.67;23.25;;;1.40;94.20;;;;;;4997015;28;20206;-76
2021/01/26 05:50:23;;;;;;;42.28;25.27;;;1.40;94.20;;;;;;5000636;28;20240;-74
2021/01/26 05:52:50;;;;;;;37.08;23.98;;;1.50;94.00;;;;;;4985352;28;20198;-75
2021/01/26 05:55:23;;;;;;;40.35;23.65;;;1.50;93.90;;;;;;4998044;28;20256;-75
2021/01/26 05:57:50;;;;;;;34.60;22.02;;;1.40;93.90;;;;;;4985178;28;20211;-77
2021/01/26 06:00:25;;;;;;;45.45;23.08;;;1.40;93.80;;;;;;4998054;28;20209;-76
2021/01/26 06:03:05;;;;;;;40.80;23.20;;;1.40;93.90;;;;;;5006909;28;20205;-76
2021/01/26 06:05:32;;;;;;;38.63;25.02;;;1.30;94.10;;;;;;4998672;28;20244;-75
2021/01/26 06:08:08;;;;;;;39.45;26.08;;;1.20;94.40;;;;;;4988563;28;20599;-75
2021/01/26 06:10:36;;;;;;;40.42;23.30;;;1.20;94.50;;;;;;4986784;28;20218;-75
2021/01/26 06:13:03;;;;;;;41.08;25.80;;;2.30;94.60;;;;;;5002385;28;20210;-75
2021/01/26 06:15:34;;;;;;;37.65;25.20;;;1.60;94.30;;;;;;4998961;28;20249;-77
2021/01/26 06:18:16;;;;;;;39.00;23.92;;;1.80;94.20;;;;;;4986368;28;20232;-77
2021/01/26 06:21:01;;;;;;;38.25;23.02;;;1.20;94.20;;;;;;4986397;28;20229;-76
2021/01/26 06:23:30;;;;;;;40.63;22.77;;;1.30;94.10;;;;;;4996274;28;20206;-75
2021/01/26 06:26:08;;;;;;;38.03;23.63;;;1.20;94.10;;;;;;4986503;28;20286;-75
2021/01/26 06:29:17;;;;;;;31.45;22.40;;;1.30;94.00;;;;;;4998023;28;20205;-77
2021/01/26 06:32:06;;;;;;;37.97;23.38;;;1.20;94.00;;;;;;4992773;28;20213;-74
2021/01/26 06:34:49;;;;;;;39.67;25.33;;;1.30;93.90;;;;;;5005541;28;20232;-75
2021/01/26 06:37:34;;;;;;;37.08;23.27;;;1.60;94.20;;;;;;4990685;28;20237;-75
2021/01/26 06:40:25;;;;;;;38.40;22.85;;;1.20;94.00;;;;;;4990280;28;20217;-74
2021/01/26 06:43:19;;;;;;;36.42;24.35;;;1.20;94.00;;;;;;4990149;28;20352;-75
2021/01/26 06:45:53;;;;;;;34.97;21.42;;;1.20;94.00;;;;;;4999754;28;20206;-74
2021/01/26 06:48:35;;;;;;;36.60;24.58;;;1.20;94.10;;;;;;4999371;28;20213;-74
2021/01/26 06:51:14;;;;;;;36.42;23.20;;;1.10;94.20;;;;;;4999782;28;20233;-74
2021/01/26 06:54:06;;;;;;;36.25;23.33;;;1.10;94.40;;;;;;4999717;28;20526;-76
2021/01/26 06:57:02;;;;;;;41.17;24.88;;;2.20;94.50;;;;;;4988268;28;20238;-76
2021/01/26 06:59:53;;;;;;;35.40;22.38;;;1.30;94.10;;;;;;4989420;28;20241;-76
2021/01/26 07:02:41;;;;;;;36.78;23.33;;;2.40;94.10;;;;;;4985764;28;20214;-75
2021/01/26 07:05:32;;;;;;;37.10;24.27;;;1.40;93.90;;;;;;4998188;28;20206;-75
2021/01/26 07:08:23;;;;;;;39.33;21.75;;;1.50;93.90;;;;;;4975883;28;20283;-75
2021/01/26 07:11:14;;;;;;;36.92;23.45;;;1.50;93.90;;;;;;4993909;28;20202;-77
2021/01/26 07:13:56;;;;;;;42.58;25.85;;;1.40;94.40;;;;;;4992759;28;20416;-77
2021/01/26 07:16:29;;;;;;;48.15;28.20;;;1.50;95.00;;;;;;5003267;28;20221;-76
2021/01/26 07:19:15;;;;;;;39.25;23.80;;;1.80;95.20;;;;;;4983164;28;20480;-79
2021/01/26 07:21:59;;;;;;;36.72;24.48;;;1.50;95.10;;;;;;5018616;28;20260;-80
2021/01/26 07:24:32;;;;;;;41.33;25.40;;;1.40;95.40;;;;;;5017009;28;20217;-81
2021/01/26 07:27:37;;;;;;;40.67;25.50;;;1.40;95.40;;;;;;4994423;28;20218;-81
2021/01/26 07:30:11;;;;;;;48.00;29.58;;;1.50;95.30;;;;;;5007670;28;20591;-81
2021/01/26 07:32:53;;;;;;;40.53;25.63;;;1.40;95.50;;;;;;4999390;28;20412;-80
2021/01/26 07:35:32;;;;;;;43.63;26.75;;;1.50;95.50;;;;;;5009342;28;20280;-80
2021/01/26 07:38:06;;;;;;;41.13;24.13;;;1.60;95.50;;;;;;4998954;28;20439;-78
2021/01/26 07:40:35;;;;;;;37.55;25.95;;;1.70;95.20;;;;;;4987873;28;20213;-79
2021/01/26 07:43:18;;;;;;;42.60;27.13;;;1.60;95.10;;;;;;4999972;28;20219;-80
2021/01/26 07:45:58;;;;;;;36.58;25.35;;;1.60;94.80;;;;;;4989085;28;20496;-79
2021/01/26 07:48:44;;;;;;;37.88;25.15;;;1.60;94.90;;;;;;4989973;28;20286;-78
2021/01/26 07:51:19;;;;;;;38.08;24.45;;;1.80;94.70;;;;;;4987307;28;20423;-79
2021/01/26 07:54:08;;;;;;;40.50;25.80;;;1.70;94.50;;;;;;4992352;28;20268;-80
2021/01/26 07:56:38;;;;;;;35.65;23.08;;;1.90;94.40;;;;;;4991875;28;20243;-80
2021/01/26 07:59:15;;;;;;;37.15;26.25;;;1.80;94.10;;;;;;4992308;28;20238;-78
2021/01/26 08:01:48;;;;;;;29.85;20.50;;;1.70;94.20;;;;;;4985993;28;20210;-79
2021/01/26 08:04:16;;;;;;;36.75;22.58;;;1.60;94.20;;;;;;4989311;28;20216;-78
2021/01/26 08:06:47;;;;;;;34.45;22.63;;;1.50;94.30;;;;;;5020417;28;20616;-77
2021/01/26 08:09:44;;;;;;;35.30;22.45;;;1.50;94.20;;;;;;4997080;28;20219;-79
2021/01/26 08:12:14;;;;;;;34.53;22.08;;;1.50;94.80;;;;;;4997534;28;20201;-78
2021/01/26 08:14:53;;;;;;;35.30;22.88;;;1.60;94.50;;;;;;4996106;28;20237;-76
2021/01/26 08:17:30;;;;;;;28.48;19.90;;;1.70;94.10;;;;;;4987436;28;20326;-80
2021/01/26 08:20:08;;;;;;;33.40;21.60;;;1.70;93.90;;;;;;4984204;28;20214;-80
2021/01/26 08:22:38;;;;;;;26.15;17.17;;;1.70;93.90;;;;;;4992255;28;20210;-79
2021/01/26 08:25:23;;;;;;;27.70;19.63;;;1.70;93.60;;;;;;4985200;28;20210;-78
2021/01/26 08:27:56;;;;;;;27.13;19.58;;;1.70;93.40;;;;;;4988567;28;20554;-80
2021/01/26 08:30:48;;;;;;;30.20;20.52;;;1.80;93.70;;;;;;4992155;28;20217;-81
2021/01/26 08:33:24;;;;;;;23.58;19.00;;;2.00;93.20;;;;;;5003583;28;20284;-76
2021/01/26 08:36:11;;;;;;;26.92;19.08;;;1.90;93.20;;;;;;4987137;28;20459;-78
2021/01/26 08:39:04;;;;;;;26.10;17.27;;;2.00;92.80;;;;;;4990851;28;20282;-79
2021/01/26 08:41:42;;;;;;;27.67;20.20;;;2.10;92.40;;;;;;4984589;28;20211;-78
2021/01/26 08:44:29;;;;;;;24.58;18.45;;;2.10;92.60;;;;;;4994113;28;20248;-79
2021/01/26 08:46:56;;;;;;;27.23;19.38;;;2.10;92.60;;;;;;4992868;28;20214;-80
2021/01/26 08:49:33;;;;;;;32.58;16.92;;;2.30;92.70;;;;;;4994032;28;20240;-78
2021/01/26 08:52:22;;;;;;;25.90;17.25;;;2.30;92.10;;;;;;5006933;28;20213;-78
2021/01/26 08:54:53;;;;;;;24.60;18.50;;;2.20;91.70;;;;;;4991346;28;20497;-78
2021/01/26 08:57:28;;;;;;;24.35;17.30;;;2.20;91.80;;;;;;4979759;28;20305;-78
2021/01/26 09:00:25;;;;;;;26.67;17.40;;;2.10;92.10;;;;;;5013504;28;20229;-79
2021/01/26 09:02:53;;;;;;;28.85;17.08;;;2.20;91.20;;;;;;4997410;28;20206;-78
2021/01/26 09:05:35;;;;;;;29.15;20.00;;;2.10;91.30;;;;;;4987353;28;20595;-80
2021/01/26 09:08:05;;;;;;;22.63;17.98;;;2.20;91.20;;;;;;4976732;28;20269;-76
2021/01/26 09:10:39;;;;;;;25.95;18.20;;;2.20;91.00;;;;;;4981617;28;20206;-77
2021/01/26 09:13:21;;;;;;;22.27;15.38;;;2.10;91.80;;;;;;5002815;28;20205;-77
2021/01/26 09:15:56;;;;;;;29.43;17.30;;;2.10;91.30;;;;;;4959350;28;724892;-78
2021/01/26 09:18:25;;;;;;;24.02;16.10;;;2.10;91.10;;;;;;4999140;28;20213;-78
2021/01/26 09:20:59;;;;;;;26.40;17.05;;;2.00;91.10;;;;;;4999427;28;20206;-79
2021/01/26 09:23:27;;;;;;;18.20;13.50;;;2.20;91.10;;;;;;4982913;28;20209;-76
2021/01/26 09:25:54;;;;;;;22.60;14.43;;;2.20;90.60;;;;;;5000165;28;20517;-78
2021/01/26 09:28:22;;;;;;;20.30;13.32;;;2.00;90.80;;;;;;4988518;28;20317;-77
2021/01/26 09:30:59;;;;;;;17.35;13.77;;;2.00;90.90;;;;;;5000146;28;20277;-76
2021/01/26 09:33:29;;;;;;;23.58;15.40;;;2.00;91.10;;;;;;4993776;28;20274;-75
2021/01/26 09:36:02;;;;;;;22.40;15.13;;;2.00;91.10;;;;;;4984007;28;20306;-76
2021/01/26 09:38:41;;;;;;;25.05;16.23;;;3.00;91.70;;;;;;4994693;28;20228;-77
2021/01/26 09:41:25;;;;;;;24.30;16.65;;;2.10;91.70;;;;;;4999596;28;20209;-77
2021/01/26 09:44:21;;;;;;;21.20;15.13;;;2.20;91.80;;;;;;4982130;28;20214;-77
2021/01/26 09:46:51;;;;;;;23.73;16.70;;;2.20;91.00;;;;;;5015238;28;20269;-76
2021/01/26 09:49:20;;;;;;;23.85;14.30;;;2.40;90.90;;;;;;4993730;28;20593;-76
2021/01/26 09:52:09;;;;;;;17.90;13.98;;;2.50;90.20;;;;;;4988061;28;20217;-75
2021/01/26 09:54:39;;;;;;;22.13;14.07;;;2.50;88.30;;;;;;4987072;28;20206;-76
2021/01/26 09:57:09;;;;;;;16.73;13.10;;;2.70;88.70;;;;;;4999682;28;20495;-75
2021/01/26 09:59:38;;;;;;;21.95;15.10;;;2.70;89.30;;;;;;4996209;28;20215;-74
2021/01/26 10:02:14;;;;;;;18.48;13.32;;;2.90;88.20;;;;;;4997332;28;20206;-75
2021/01/26 10:04:42;;;;;;;17.58;12.68;;;3.00;87.40;;;;;;5000741;28;20218;-75
2021/01/26 10:07:20;;;;;;;19.00;13.88;;;3.10;86.70;;;;;;4999690;28;20234;-75
2021/01/26 10:09:47;;;;;;;12.25;9.18;;;3.10;86.20;;;;;;4992175;28;20219;-74
2021/01/26 10:12:38;;;;;;;16.98;12.30;;;3.10;84.30;;;;;;4994034;28;20226;-73
2021/01/26 10:15:23;;;;;;;23.63;12.60;;;3.10;84.80;;;;;;5006845;28;20245;-75
2021/01/26 10:17:54;;;;;;;13.73;10.50;;;3.10;85.40;;;;;;4996330;28;20265;-73
2021/01/26 10:20:35;;;;;;;19.40;13.05;;;3.00;84.90;;;;;;4989850;28;20221;-73
2021/01/26 10:23:41;;;;;;;17.02;12.65;;;3.00;84.70;;;;;;4989017;28;20229;-72
2021/01/26 10:26:15;;;;;;;21.17;13.65;;;3.10;84.90;;;;;;4986176;28;20268;-72
2021/01/26 10:28:59;;;;;;;18.85;13.13;;;3.20;85.20;;;;;;4996231;28;20310;-73
2021/01/26 10:31:29;;;;;;;20.73;14.70;;;3.30;84.20;;;;;;4999450;28;20222;-74
2021/01/26 10:33:56;;;;;;;17.60;13.38;;;3.30;83.40;;;;;;4996941;28;20211;-74
2021/01/26 10:36:33;;;;;;;17.73;13.80;;;3.70;84.00;;;;;;4999719;28;20547;-74
2021/01/26 10:39:20;;;;;;;20.38;14.50;;;3.80;82.90;;;;;;4991240;28;20353;-73
2021/01/26 10:42:02;;;;;;;16.48;11.60;;;3.80;81.90;;;;;;4987190;28;20196;-72
2021/01/26 10:44:30;;;;;;;18.65;13.57;;;3.80;82.50;;;;;;4982610;28;20379;-73
2021/01/26 10:46:58;;;;;;;18.98;14.13;;;3.70;81.80;;;;;;4993145;28;20303;-73
2021/01/26 10:49:36;;;;;;;20.52;14.27;;;3.80;83.60;;;;;;4995256;28;20239;-73
2021/01/26 10:52:06;;;;;;;16.95;12.98;;;3.80;82.90;;;;;;4997800;28;20329;-72
2021/01/26 10:54:34;;;;;;;19.60;13.18;;;3.80;82.10;;;;;;4995066;28;20217;-72
2021/01/26 10:57:02;;;;;;;17.08;13.98;;;4.10;82.00;;;;;;4994356;28;20232;-73
2021/01/26 10:59:28;;;;;;;21.67;14.68;;;4.10;82.30;;;;;;4998951;28;20218;-74
2021/01/26 11:01:55;;;;;;;21.08;14.43;;;3.80;81.60;;;;;;4994384;28;20516;-74
2021/01/26 11:04:22;;;;;;;16.73;12.32;;;3.70;82.80;;;;;;4988076;28;20226;-74
2021/01/26 11:06:50;;;;;;;19.77;12.68;;;3.80;82.50;;;;;;4979309;28;20261;-74
2021/01/26 11:09:16;;;;;;;17.80;12.23;;;3.90;82.40;;;;;;4978437;28;20208;-74
2021/01/26 11:11:45;;;;;;;19.80;13.38;;;3.80;81.80;;;;;;4987978;28;20213;-74
2021/01/26 11:14:12;;;;;;;20.73;12.65;;;3.90;82.10;;;;;;4993946;28;20234;-75
2021/01/26 11:16:39;;;;;;;17.13;13.25;;;4.10;81.40;;;;;;4992947;28;20236;-75
2021/01/26 11:19:15;;;;;;;88.85;22.23;;;4.20;81.20;;;;;;4981728;28;20224;-75
2021/01/26 11:21:52;;;;;;;22.33;13.45;;;4.30;80.50;;;;;;4995426;28;20220;-74
2021/01/26 11:24:18;;;;;;;75.97;18.75;;;4.30;82.50;;;;;;4992477;28;20211;-75
2021/01/26 11:26:45;;;;;;;26.10;11.38;;;4.30;81.40;;;;;;4989459;28;20341;-74
2021/01/26 11:29:12;;;;;;;17.95;13.05;;;4.10;79.40;;;;;;4997525;28;20208;-73
2021/01/26 11:31:38;;;;;;;15.40;12.70;;;4.10;80.30;;;;;;4995699;28;20208;-72
2021/01/26 11:34:05;;;;;;;16.20;11.88;;;4.10;81.20;;;;;;4992777;28;20231;-74
2021/01/26 11:36:32;;;;;;;16.90;13.15;;;4.20;80.50;;;;;;4996991;28;20238;-74
2021/01/26 11:38:58;;;;;;;15.77;11.57;;;4.10;82.10;;;;;;4997069;28;20208;-75
2021/01/26 11:41:25;;;;;;;18.77;13.05;;;4.20;81.00;;;;;;4995828;28;20218;-75
2021/01/26 11:43:52;;;;;;;193.98;34.08;;;4.10;80.10;;;;;;4988400;28;20210;-75
2021/01/26 11:46:18;;;;;;;32.33;14.45;;;4.30;79.70;;;;;;4997146;28;20220;-74
2021/01/26 11:48:45;;;;;;;15.65;10.38;;;4.40;79.40;;;;;;4989075;28;20212;-75
2021/01/26 11:51:12;;;;;;;14.98;11.40;;;4.40;79.60;;;;;;4990723;28;20220;-73
2021/01/26 11:53:38;;;;;;;20.08;10.85;;;4.40;78.10;;;;;;4996431;28;20230;-74
2021/01/26 11:56:06;;;;;;;14.00;10.73;;;4.40;78.90;;;;;;4989684;28;20236;-74
2021/01/26 11:58:35;;;;;;;14.00;12.00;;;4.40;79.60;;;;;;4994650;28;20209;-73
2021/01/26 12:01:02;;;;;;;15.75;11.18;;;4.30;78.70;;;;;;4987257;28;20235;-74
2021/01/26 12:03:29;;;;;;;15.75;11.63;;;4.40;78.10;;;;;;4989881;28;20513;-73
2021/01/26 12:05:57;;;;;;;14.20;9.63;;;4.60;78.30;;;;;;4994249;28;20215;-73
2021/01/26 12:08:24;;;;;;;14.45;9.45;;;4.70;78.70;;;;;;4987893;28;20243;-74
2021/01/26 12:10:51;;;;;;;11.95;9.55;;;4.90;77.60;;;;;;4992926;28;20218;-75
2021/01/26 12:13:18;;;;;;;14.68;9.63;;;4.80;76.30;;;;;;4987927;28;20222;-74
2021/01/26 12:15:45;;;;;;;15.23;11.50;;;4.70;76.60;;;;;;4984398;28;20244;-73
2021/01/26 12:18:12;;;;;;;15.55;9.90;;;4.70;78.10;;;;;;4981874;28;20522;-74
2021/01/26 12:20:39;;;;;;;12.60;10.32;;;4.80;77.10;;;;;;4980238;28;20504;-74
2021/01/26 12:23:06;;;;;;;17.67;11.63;;;4.80;75.60;;;;;;4985083;28;20211;-73
2021/01/26 12:25:35;;;;;;;10.32;9.30;;;4.80;78.30;;;;;;4984832;28;20206;-74
2021/01/26 12:28:03;;;;;;;13.27;9.60;;;4.70;77.20;;;;;;4989969;28;20302;-72
2021/01/26 12:30:30;;;;;;;11.10;8.48;;;4.60;75.90;;;;;;4996236;28;20206;-73
2021/01/26 12:32:58;;;;;;;15.95;8.77;;;4.50;76.10;;;;;;4990944;28;20209;-73
2021/01/26 12:35:33;;;;;;;9.43;8.43;;;4.50;75.60;;;;;;4982639;28;20218;-74
2021/01/26 12:38:00;;;;;;;14.65;10.52;;;4.50;75.60;;;;;;4982488;28;20212;-73
2021/01/26 12:40:27;;;;;;;12.10;9.63;;;4.60;76.40;;;;;;4981004;28;20569;-74
2021/01/26 12:42:54;;;;;;;15.65;10.38;;;4.60;76.30;;;;;;4987300;28;20229;-75
2021/01/26 12:45:25;;;;;;;8.65;7.63;;;4.60;76.60;;;;;;4987855;28;20300;-73
2021/01/26 12:47:52;;;;;;;12.82;8.63;;;4.40;76.30;;;;;;4985468;28;20216;-74
2021/01/26 12:50:25;;;;;;;12.57;7.88;;;4.20;77.50;;;;;;4997548;28;20228;-74
2021/01/26 12:52:53;;;;;;;8.23;7.10;;;3.80;78.50;;;;;;5014729;28;20309;-73
2021/01/26 12:55:20;;;;;;;10.73;7.65;;;3.70;78.90;;;;;;4982667;28;20222;-73
2021/01/26 12:57:47;;;;;;;9.20;6.68;;;3.60;77.50;;;;;;4987012;28;20240;-73
2021/01/26 13:00:16;;;;;;;12.85;7.57;;;3.60;76.00;;;;;;4993797;28;20214;-72
2021/01/26 13:02:43;;;;;;;6.85;5.85;;;3.60;77.00;;;;;;4991365;28;20207;-73
2021/01/26 13:05:12;;;;;;;11.98;6.60;;;3.60;76.00;;;;;;4992591;28;20213;-73
2021/01/26 13:07:38;;;;;;;11.00;7.43;;;3.50;76.00;;;;;;4990549;28;20227;-73
2021/01/26 13:10:07;;;;;;;9.90;7.15;;;3.50;76.10;;;;;;4978467;28;20302;-74
2021/01/26 13:12:34;;;;;;;11.88;7.35;;;3.40;77.20;;;;;;4990752;28;20241;-73
2021/01/26 13:15:02;;;;;;;11.80;7.32;;;3.40;77.40;;;;;;4979594;28;20579;-71
2021/01/26 13:17:29;;;;;;;12.80;8.10;;;3.30;78.10;;;;;;4993969;28;20237;-73